Time;durP1;ratioP1;P1;durP2;ratioP2;P2;SDS_P1;SDS_P2;PMS_P1;PMS_P2;Temp;Humidity;BMP_temperature;BMP_pressure;BME280_temperature;BME280_humidity;BME280_pressure;Samples;Min_cycle;Max_cycle;Signal;HPM_P1;HPM_P2
2023/09/20 00:00:54;;;;;;;7.30;3.20;;;16.40;99.90;;;;;;5029039;28;20049;-81
2023/09/20 00:03:20;;;;;;;5.45;3.17;;;16.40;99.90;;;;;;5046806;28;20041;-82
2023/09/20 00:05:47;;;;;;;6.65;3.30;;;16.50;99.90;;;;;;5045360;28;20049;-83
2023/09/20 00:08:14;;;;;;;8.30;3.28;;;16.50;99.90;;;;;;5045461;28;20045;-82
2023/09/20 00:10:40;;;;;;;9.00;4.30;;;16.50;99.90;;;;;;5029098;28;20060;-82
2023/09/20 00:13:06;;;;;;;9.10;3.53;;;16.50;99.90;;;;;;5047134;28;20044;-82
2023/09/20 00:15:32;;;;;;;7.20;3.53;;;16.60;99.90;;;;;;5012064;28;20504;-81
2023/09/20 00:17:58;;;;;;;7.00;3.22;;;16.60;99.90;;;;;;5027349;28;20075;-83
2023/09/20 00:20:25;;;;;;;8.73;3.35;;;16.60;99.90;;;;;;5028423;28;20237;-82
2023/09/20 00:22:50;;;;;;;7.93;3.60;;;16.70;99.90;;;;;;5032339;28;20099;-82
2023/09/20 00:25:17;;;;;;;7.43;3.50;;;16.80;99.90;;;;;;5016526;28;20039;-82
2023/09/20 00:27:45;;;;;;;7.63;3.58;;;16.70;99.90;;;;;;5050516;28;20056;-83
2023/09/20 00:30:14;;;;;;;8.00;3.22;;;17.20;99.90;;;;;;5032214;28;20120;-82
2023/09/20 00:32:43;;;;;;;8.80;2.95;;;16.70;99.90;;;;;;5032456;28;20087;-81
2023/09/20 00:35:10;;;;;;;10.02;3.80;;;17.00;99.90;;;;;;5030996;28;20052;-82
2023/09/20 00:37:46;;;;;;;6.13;3.20;;;17.20;99.90;;;;;;5016111;28;20653;-82
2023/09/20 00:40:17;;;;;;;8.48;3.75;;;16.90;99.90;;;;;;5029636;28;20041;-82
2023/09/20 00:42:45;;;;;;;14.40;3.88;;;17.30;99.90;;;;;;5030851;28;20493;-82
2023/09/20 00:45:13;;;;;;;7.25;3.58;;;17.30;99.90;;;;;;5030363;28;20053;-81
2023/09/20 00:47:57;;;;;;;7.45;3.13;;;16.80;99.90;;;;;;5031820;28;20048;-82
2023/09/20 00:50:31;;;;;;;10.82;3.55;;;16.90;99.90;;;;;;5032657;28;20052;-82
2023/09/20 00:52:57;;;;;;;6.07;2.65;;;16.90;99.90;;;;;;5050122;28;20051;-82
2023/09/20 00:55:29;;;;;;;9.40;2.97;;;16.90;99.90;;;;;;5031931;28;20037;-82
2023/09/20 00:58:02;;;;;;;9.10;2.97;;;16.90;99.90;;;;;;5031012;28;20053;-81
2023/09/20 01:00:28;;;;;;;7.53;3.55;;;16.90;99.90;;;;;;5031578;28;20087;-82
2023/09/20 01:02:55;;;;;;;7.63;3.15;;;16.90;99.90;;;;;;5050022;28;20068;-82
2023/09/20 01:05:22;;;;;;;9.73;3.00;;;17.00;99.90;;;;;;5050290;28;20126;-82
2023/09/20 01:07:51;;;;;;;7.72;3.30;;;17.00;99.90;;;;;;5048561;28;20111;-82
2023/09/20 01:10:27;;;;;;;8.18;3.25;;;17.00;99.90;;;;;;5049199;28;20134;-83
2023/09/20 01:12:54;;;;;;;4.53;2.85;;;17.00;99.90;;;;;;5049274;28;20423;-83
2023/09/20 01:15:25;;;;;;;6.13;2.88;;;17.00;99.90;;;;;;5031830;28;20045;-82
2023/09/20 01:17:56;;;;;;;6.75;3.30;;;17.10;99.90;;;;;;5030062;28;20057;-82
2023/09/20 01:20:26;;;;;;;5.57;3.28;;;17.00;99.90;;;;;;5049623;28;20060;-82
2023/09/20 01:22:54;;;;;;;7.05;3.00;;;17.00;99.90;;;;;;5031651;28;20076;-82
2023/09/20 01:25:28;;;;;;;6.22;2.78;;;17.00;99.90;;;;;;5029429;28;20048;-83
2023/09/20 01:27:55;;;;;;;10.55;3.00;;;17.10;99.90;;;;;;5029970;28;20804;-82
2023/09/20 01:30:25;;;;;;;7.90;2.78;;;17.00;99.90;;;;;;5048958;28;20040;-81
2023/09/20 01:32:54;;;;;;;7.38;3.30;;;17.00;99.90;;;;;;5047949;28;20060;-81
2023/09/20 01:35:26;;;;;;;5.00;2.90;;;17.00;99.90;;;;;;5031836;28;20132;-81
2023/09/20 01:37:52;;;;;;;7.03;2.83;;;17.10;99.90;;;;;;5048046;28;20099;-82
2023/09/20 01:40:23;;;;;;;7.72;2.97;;;17.10;99.90;;;;;;5046952;28;20413;-82
2023/09/20 01:42:50;;;;;;;7.68;3.10;;;17.40;99.90;;;;;;5047906;28;20041;-82
2023/09/20 01:45:20;;;;;;;9.13;3.47;;;17.30;99.90;;;;;;5049226;28;20512;-83
2023/09/20 01:47:49;;;;;;;7.47;2.72;;;17.10;99.90;;;;;;5030103;28;20040;-83
2023/09/20 01:50:19;;;;;;;7.25;3.17;;;17.10;99.90;;;;;;5049190;28;20064;-82
2023/09/20 01:52:59;;;;;;;7.03;3.00;;;17.10;99.90;;;;;;5030876;28;20454;-82
2023/09/20 01:55:27;;;;;;;5.32;2.83;;;17.10;99.90;;;;;;5048805;28;20556;-83
2023/09/20 01:57:55;;;;;;;8.07;2.90;;;17.70;99.90;;;;;;5047495;28;20512;-82
2023/09/20 02:00:22;;;;;;;5.53;2.70;;;17.10;99.90;;;;;;5030979;28;20041;-82
2023/09/20 02:03:00;;;;;;;10.82;3.15;;;17.10;99.90;;;;;;5030974;28;20120;-82
2023/09/20 02:05:27;;;;;;;5.85;3.92;;;17.10;99.90;;;;;;5031118;28;20068;-82
2023/09/20 02:07:58;;;;;;;5.57;2.80;;;17.10;99.90;;;;;;5029702;28;20049;-82
2023/09/20 02:10:24;;;;;;;4.90;2.67;;;17.10;99.90;;;;;;5048284;28;20045;-83
2023/09/20 02:12:56;;;;;;;4.68;2.63;;;17.10;99.90;;;;;;5031028;28;20045;-82
2023/09/20 02:15:24;;;;;;;6.90;2.88;;;18.00;99.90;;;;;;5030487;28;20040;-82
2023/09/20 02:17:50;;;;;;;5.18;2.63;;;17.30;99.90;;;;;;5029090;28;20052;-82
2023/09/20 02:20:19;;;;;;;6.25;3.00;;;17.10;99.90;;;;;;5048896;28;20476;-82
2023/09/20 02:22:47;;;;;;;7.05;3.00;;;17.10;99.90;;;;;;5048698;28;20132;-83
2023/09/20 02:25:14;;;;;;;8.70;3.08;;;17.60;99.90;;;;;;5048168;28;20060;-82
2023/09/20 02:27:40;;;;;;;6.18;2.42;;;17.10;99.90;;;;;;5046452;28;20045;-82
2023/09/20 02:30:12;;;;;;;6.72;2.72;;;17.10;99.90;;;;;;5030914;28;20746;-82
2023/09/20 02:32:38;;;;;;;6.05;2.80;;;17.20;99.90;;;;;;5048656;28;20477;-82
2023/09/20 02:35:06;;;;;;;5.20;2.92;;;17.20;99.90;;;;;;5048109;28;20075;-83
2023/09/20 02:37:33;;;;;;;7.32;2.72;;;17.20;99.90;;;;;;5029217;28;20059;-85
2023/09/20 02:39:59;;;;;;;8.73;3.17;;;17.20;99.90;;;;;;5045785;28;20103;-83
2023/09/20 02:42:26;;;;;;;10.43;3.05;;;17.60;99.90;;;;;;5048021;28;20528;-83
2023/09/20 02:44:56;;;;;;;6.60;2.97;;;17.20;99.90;;;;;;5030080;28;20052;-83
2023/09/20 02:47:24;;;;;;;7.00;2.60;;;17.20;99.90;;;;;;5046798;28;20048;-83
2023/09/20 02:49:50;;;;;;;6.18;2.65;;;17.20;99.90;;;;;;5047022;28;20052;-82
2023/09/20 02:52:19;;;;;;;8.32;2.70;;;17.70;99.90;;;;;;5048668;28;20049;-82
2023/09/20 02:54:44;;;;;;;7.97;3.00;;;17.20;99.90;;;;;;5029634;28;20044;-84
2023/09/20 02:57:13;;;;;;;6.50;2.90;;;17.20;99.90;;;;;;5030156;28;20063;-83
2023/09/20 02:59:39;;;;;;;6.53;3.05;;;17.90;99.90;;;;;;5012286;28;20047;-82
2023/09/20 03:02:05;;;;;;;6.65;3.15;;;17.40;99.90;;;;;;5047772;28;20466;-83
2023/09/20 03:04:32;;;;;;;5.95;2.72;;;17.10;99.90;;;;;;5047991;28;20049;-83
2023/09/20 03:06:57;;;;;;;8.73;3.28;;;17.10;99.90;;;;;;5029628;28;20044;-82
2023/09/20 03:09:24;;;;;;;7.65;2.92;;;17.10;99.90;;;;;;5012837;28;20118;-83
2023/09/20 03:11:51;;;;;;;8.45;3.05;;;17.10;99.90;;;;;;5045925;28;20041;-82
2023/09/20 03:14:17;;;;;;;5.50;3.05;;;17.10;99.90;;;;;;5027505;28;20042;-83
2023/09/20 03:16:43;;;;;;;7.88;3.05;;;17.10;99.90;;;;;;4993401;28;20057;-82
2023/09/20 03:19:10;;;;;;;11.05;3.78;;;17.10;99.90;;;;;;5032397;28;20127;-83
2023/09/20 03:21:36;;;;;;;8.80;3.45;;;17.10;99.90;;;;;;5047375;28;20048;-83
2023/09/20 03:24:05;;;;;;;9.70;3.90;;;17.10;99.90;;;;;;5029620;28;20404;-82
2023/09/20 03:26:32;;;;;;;8.43;2.90;;;17.20;99.90;;;;;;5028949;28;20116;-83
2023/09/20 03:28:57;;;;;;;8.23;3.22;;;17.70;99.90;;;;;;5046769;28;20052;-83
2023/09/20 03:31:23;;;;;;;8.20;3.08;;;17.00;99.90;;;;;;5028882;28;20437;-82
2023/09/20 03:33:49;;;;;;;8.63;3.10;;;17.00;99.90;;;;;;5028457;28;20524;-82
2023/09/20 03:36:15;;;;;;;7.63;3.38;;;17.00;99.90;;;;;;5028930;28;20136;-82
2023/09/20 03:38:41;;;;;;;6.63;3.47;;;17.00;99.90;;;;;;5046108;28;20052;-83
2023/09/20 03:41:07;;;;;;;8.35;3.40;;;17.00;99.90;;;;;;5046735;28;20088;-83
2023/09/20 03:43:33;;;;;;;9.93;3.45;;;16.90;99.90;;;;;;5047534;28;20068;-82
2023/09/20 03:45:59;;;;;;;8.48;3.20;;;16.90;99.90;;;;;;5047161;28;20095;-83
2023/09/20 03:48:25;;;;;;;7.75;3.08;;;16.80;99.90;;;;;;5046185;28;20045;-83
2023/09/20 03:50:50;;;;;;;7.75;3.50;;;17.20;99.90;;;;;;5028039;28;20052;-83
2023/09/20 03:53:16;;;;;;;6.03;3.08;;;16.70;99.90;;;;;;5047124;28;20045;-83
2023/09/20 03:55:42;;;;;;;8.13;3.33;;;17.50;99.90;;;;;;5046204;28;20095;-83
2023/09/20 03:58:07;;;;;;;5.13;2.63;;;16.70;99.90;;;;;;5033131;28;20076;-82
2023/09/20 04:00:34;;;;;;;8.50;3.65;;;16.60;99.90;;;;;;5032581;28;20048;-83
2023/09/20 04:03:01;;;;;;;8.70;3.17;;;16.60;99.90;;;;;;5051150;28;20052;-82
2023/09/20 04:05:27;;;;;;;8.15;3.08;;;16.80;99.90;;;;;;5016701;28;20075;-82
2023/09/20 04:07:53;;;;;;;7.10;3.08;;;16.50;99.90;;;;;;5033293;28;20057;-82
2023/09/20 04:10:18;;;;;;;6.90;3.65;;;16.50;99.90;;;;;;5037017;28;20103;-82
2023/09/20 04:12:48;;;;;;;5.68;2.78;;;16.50;99.90;;;;;;5030818;28;20160;-83
2023/09/20 04:15:15;;;;;;;7.18;3.30;;;16.40;99.90;;;;;;5015409;28;20060;-83
2023/09/20 04:17:40;;;;;;;9.73;3.22;;;16.40;99.90;;;;;;5050539;28;20056;-83
2023/09/20 04:20:07;;;;;;;5.53;2.83;;;16.30;99.90;;;;;;5049429;28;20111;-83
2023/09/20 04:22:34;;;;;;;6.00;3.08;;;16.30;99.90;;;;;;5050732;28;20049;-82
2023/09/20 04:25:01;;;;;;;6.70;3.20;;;16.40;99.90;;;;;;5050466;28;20053;-83
2023/09/20 04:27:29;;;;;;;10.40;3.08;;;17.00;99.90;;;;;;5031006;28;20527;-82
2023/09/20 04:29:55;;;;;;;7.50;3.20;;;16.10;99.90;;;;;;5032292;28;21717;-82
2023/09/20 04:32:21;;;;;;;9.45;3.88;;;17.00;99.90;;;;;;5050807;28;20172;-82
2023/09/20 04:34:47;;;;;;;7.75;3.42;;;16.00;99.90;;;;;;5050386;28;20045;-82
2023/09/20 04:37:16;;;;;;;7.13;3.17;;;16.40;99.90;;;;;;5014676;28;20416;-82
2023/09/20 04:39:42;;;;;;;6.22;3.20;;;15.90;99.90;;;;;;5032104;28;20068;-82
2023/09/20 04:42:10;;;;;;;11.80;3.40;;;15.90;99.90;;;;;;5050694;28;20037;-83
2023/09/20 04:44:36;;;;;;;7.97;3.47;;;15.80;99.90;;;;;;5050581;28;20497;-83
2023/09/20 04:47:02;;;;;;;7.70;3.10;;;15.80;99.90;;;;;;5031716;28;20045;-83
2023/09/20 04:49:27;;;;;;;7.95;3.40;;;15.80;99.90;;;;;;5050929;28;20037;-82
2023/09/20 04:51:53;;;;;;;8.50;3.15;;;15.70;99.90;;;;;;5050967;28;20049;-83
2023/09/20 04:54:21;;;;;;;6.68;2.95;;;15.80;99.90;;;;;;5033181;28;20412;-82
2023/09/20 04:56:47;;;;;;;7.28;3.55;;;15.70;99.90;;;;;;5030712;28;20048;-82
2023/09/20 04:59:14;;;;;;;10.07;3.22;;;15.70;99.90;;;;;;5031081;28;20136;-83
2023/09/20 05:01:42;;;;;;;9.07;3.28;;;15.60;99.90;;;;;;5049879;28;20067;-82
2023/09/20 05:04:12;;;;;;;5.28;3.60;;;15.60;99.90;;;;;;5050775;28;20076;-83
2023/09/20 05:06:38;;;;;;;6.55;2.95;;;15.50;99.90;;;;;;5049801;28;20045;-82
2023/09/20 05:09:03;;;;;;;8.93;3.70;;;15.50;99.90;;;;;;5031826;28;20091;-82
2023/09/20 05:11:29;;;;;;;10.32;3.65;;;15.40;99.90;;;;;;5050453;28;20045;-82
2023/09/20 05:13:55;;;;;;;5.20;3.30;;;15.40;99.90;;;;;;5050747;28;20523;-83
2023/09/20 05:16:21;;;;;;;8.95;3.80;;;15.30;99.90;;;;;;5030349;28;20108;-83
2023/09/20 05:18:46;;;;;;;11.35;3.67;;;15.50;99.90;;;;;;5030401;28;20071;-83
2023/09/20 05:21:12;;;;;;;8.80;3.33;;;15.30;99.90;;;;;;5048842;28;20674;-83
2023/09/20 05:23:40;;;;;;;5.75;3.28;;;15.30;99.90;;;;;;5032381;28;20041;-83
2023/09/20 05:26:08;;;;;;;6.70;3.35;;;15.30;99.90;;;;;;5031987;28;20132;-82
2023/09/20 05:28:35;;;;;;;9.07;3.83;;;15.70;99.90;;;;;;5012962;28;20065;-83
2023/09/20 05:31:05;;;;;;;6.97;3.03;;;15.30;99.90;;;;;;5039985;28;20487;-82
2023/09/20 05:33:34;;;;;;;7.65;3.25;;;15.30;99.90;;;;;;5037459;28;20059;-82
2023/09/20 05:36:00;;;;;;;10.38;3.45;;;15.20;99.90;;;;;;5025001;28;20069;-82
2023/09/20 05:38:30;;;;;;;7.45;3.10;;;15.20;99.90;;;;;;5031926;28;20158;-81
2023/09/20 05:40:56;;;;;;;7.85;3.33;;;15.20;99.90;;;;;;5049635;28;20503;-81
2023/09/20 05:43:22;;;;;;;7.03;3.20;;;15.20;99.90;;;;;;5032441;28;20124;-83
2023/09/20 05:45:49;;;;;;;7.00;2.83;;;15.20;99.90;;;;;;5030372;28;20065;-82
2023/09/20 05:48:16;;;;;;;6.05;3.10;;;15.30;99.90;;;;;;5049593;28;20087;-81
2023/09/20 05:50:46;;;;;;;4.95;2.70;;;15.20;99.90;;;;;;5031830;28;20045;-82
2023/09/20 05:53:14;;;;;;;8.25;2.92;;;15.30;99.90;;;;;;5031941;28;20124;-82
2023/09/20 05:55:43;;;;;;;8.05;2.92;;;15.30;99.90;;;;;;5029878;28;20425;-82
2023/09/20 05:58:09;;;;;;;5.43;3.00;;;15.40;99.90;;;;;;5023634;28;20103;-82
2023/09/20 06:00:35;;;;;;;4.60;2.90;;;15.70;99.90;;;;;;5014078;28;20052;-83
2023/09/20 06:03:04;;;;;;;9.10;3.30;;;15.50;99.90;;;;;;5031655;28;20076;-84
2023/09/20 06:05:37;;;;;;;7.45;2.90;;;15.50;99.90;;;;;;5031563;28;20049;-85
2023/09/20 06:08:04;;;;;;;5.03;3.03;;;16.20;99.90;;;;;;5014170;28;20139;-83
2023/09/20 06:10:29;;;;;;;7.68;2.70;;;15.60;99.90;;;;;;5047836;28;20080;-83
2023/09/20 06:12:58;;;;;;;6.38;3.22;;;15.70;99.90;;;;;;5031999;28;20357;-80
2023/09/20 06:15:24;;;;;;;6.45;2.95;;;15.80;99.90;;;;;;5029958;28;20484;-82
2023/09/20 06:17:49;;;;;;;8.25;3.10;;;16.30;99.90;;;;;;5045677;28;20053;-82
2023/09/20 06:20:24;;;;;;;6.88;2.90;;;16.80;99.90;;;;;;5048981;28;20488;-83
2023/09/20 06:22:50;;;;;;;7.75;3.17;;;15.90;99.90;;;;;;5031950;28;20136;-83
2023/09/20 06:25:19;;;;;;;6.57;2.80;;;16.00;99.90;;;;;;5031409;28;20124;-83
2023/09/20 06:27:45;;;;;;;5.60;2.63;;;16.00;99.90;;;;;;5031817;28;20547;-84
2023/09/20 06:30:14;;;;;;;6.85;3.10;;;16.10;99.90;;;;;;5048878;28;20148;-84
2023/09/20 06:32:44;;;;;;;5.80;2.88;;;16.10;99.90;;;;;;5043391;28;20464;-81
2023/09/20 06:35:10;;;;;;;7.00;2.80;;;16.50;99.90;;;;;;5031966;28;20040;-81
2023/09/20 06:37:37;;;;;;;5.10;2.83;;;16.30;99.90;;;;;;5012250;28;20053;-82
2023/09/20 06:40:04;;;;;;;8.95;2.72;;;16.40;99.90;;;;;;5047263;28;20555;-82
2023/09/20 06:42:30;;;;;;;6.00;3.13;;;16.50;99.90;;;;;;5044183;28;20083;-83
2023/09/20 06:44:59;;;;;;;8.20;3.00;;;16.60;99.90;;;;;;5046509;28;20037;-81
2023/09/20 06:47:24;;;;;;;4.93;2.83;;;16.50;99.90;;;;;;5046136;28;20041;-82
2023/09/20 06:49:51;;;;;;;5.85;2.95;;;16.70;99.90;;;;;;5041737;28;20110;-82
2023/09/20 06:52:18;;;;;;;7.10;2.85;;;16.70;99.90;;;;;;5028352;28;20052;-82
2023/09/20 06:54:45;;;;;;;5.18;2.85;;;16.80;99.90;;;;;;5038376;28;20426;-82
2023/09/20 06:57:17;;;;;;;4.75;2.75;;;16.90;99.90;;;;;;5021381;28;20126;-82
2023/09/20 06:59:45;;;;;;;5.82;2.65;;;16.90;99.90;;;;;;5010026;28;20600;-82
2023/09/20 07:02:13;;;;;;;7.07;3.30;;;17.20;99.90;;;;;;5038720;28;20124;-82
2023/09/20 07:04:39;;;;;;;7.10;2.97;;;17.10;99.90;;;;;;5039667;28;20195;-82
2023/09/20 07:07:05;;;;;;;8.50;3.58;;;17.20;99.90;;;;;;5047930;28;20535;-83
2023/09/20 07:09:32;;;;;;;4.50;2.60;;;17.20;99.90;;;;;;5044347;28;20392;-82
2023/09/20 07:12:01;;;;;;;7.30;3.28;;;17.30;99.90;;;;;;5026615;28;20053;-81
2023/09/20 07:14:35;;;;;;;8.73;3.38;;;18.10;99.90;;;;;;5028039;28;20126;-82
2023/09/20 07:17:02;;;;;;;4.82;3.38;;;17.40;99.90;;;;;;5046405;28;21108;-82
2023/09/20 07:19:29;;;;;;;6.65;3.03;;;17.40;99.90;;;;;;5029945;28;20136;-82
2023/09/20 07:21:55;;;;;;;7.43;2.90;;;17.60;99.90;;;;;;5029543;28;20067;-81
2023/09/20 07:24:24;;;;;;;6.32;2.90;;;17.60;99.90;;;;;;5028372;28;20204;-82
2023/09/20 07:26:51;;;;;;;7.03;3.05;;;17.60;99.90;;;;;;5009973;28;20551;-82
2023/09/20 07:29:18;;;;;;;6.88;3.33;;;17.60;99.90;;;;;;5028644;28;20413;-83
2023/09/20 07:31:45;;;;;;;8.50;3.42;;;17.60;99.90;;;;;;5026449;28;20091;-82
2023/09/20 07:34:13;;;;;;;5.10;2.90;;;17.60;99.90;;;;;;5026144;28;20168;-82
2023/09/20 07:36:40;;;;;;;11.50;3.17;;;17.70;99.90;;;;;;5044460;28;20108;-82
2023/09/20 07:39:12;;;;;;;6.43;3.05;;;17.80;99.90;;;;;;5021102;28;20053;-82
2023/09/20 07:41:46;;;;;;;5.90;2.83;;;17.90;99.90;;;;;;5025101;28;20572;-82
2023/09/20 07:44:13;;;;;;;10.10;3.40;;;18.20;99.90;;;;;;5025526;28;20056;-83
2023/09/20 07:46:40;;;;;;;8.20;3.00;;;18.40;99.90;;;;;;5025151;28;20608;-82
2023/09/20 07:49:13;;;;;;;7.50;3.15;;;18.40;99.90;;;;;;5025658;28;20184;-82
2023/09/20 07:51:39;;;;;;;7.72;3.10;;;19.40;99.90;;;;;;5031901;28;20048;-82
2023/09/20 07:54:14;;;;;;;5.57;3.10;;;19.40;99.90;;;;;;5029145;28;20128;-81
2023/09/20 07:56:43;;;;;;;5.35;2.60;;;18.40;99.90;;;;;;5035094;28;20045;-82
2023/09/20 07:59:09;;;;;;;6.57;3.50;;;18.10;99.90;;;;;;5027634;28;20052;-81
2023/09/20 08:01:35;;;;;;;6.40;3.05;;;18.50;99.90;;;;;;5027392;28;20080;-82
2023/09/20 08:04:06;;;;;;;5.93;3.42;;;18.30;99.90;;;;;;5026629;28;20038;-82
2023/09/20 08:06:36;;;;;;;4.88;2.80;;;18.30;99.90;;;;;;5027273;28;20064;-82
2023/09/20 08:09:04;;;;;;;6.63;3.10;;;18.30;99.90;;;;;;5027022;28;20521;-81
2023/09/20 08:11:30;;;;;;;5.85;3.20;;;18.30;99.90;;;;;;5034373;28;20048;-81
2023/09/20 08:13:59;;;;;;;4.68;2.80;;;18.40;99.90;;;;;;5028835;28;20076;-81
2023/09/20 08:16:33;;;;;;;10.45;3.60;;;17.50;99.90;;;;;;5046505;28;20404;-82
2023/09/20 08:21:43;;;;;;;6.38;2.88;;;18.40;99.90;;;;;;5046687;28;20048;-83
2023/09/20 09:00:31;;;;;;;4.40;2.70;;;18.70;99.90;;;;;;5050460;28;20060;-83
2023/09/20 09:02:58;;;;;;;5.47;2.72;;;18.40;99.90;;;;;;5049790;28;20048;-83
2023/09/20 09:05:27;;;;;;;3.47;2.50;;;18.40;99.90;;;;;;5049156;28;20045;-82
2023/09/20 09:07:54;;;;;;;4.95;2.40;;;18.40;99.90;;;;;;5050133;28;20423;-82
2023/09/20 09:10:20;;;;;;;4.15;2.63;;;18.50;99.90;;;;;;5049653;28;20047;-82
2023/09/20 09:12:49;;;;;;;5.45;2.88;;;19.00;99.90;;;;;;5050277;28;20048;-81
2023/09/20 09:15:18;;;;;;;4.05;2.65;;;18.40;99.90;;;;;;5049217;28;20056;-82
2023/09/20 09:17:47;;;;;;;4.80;2.58;;;18.40;99.90;;;;;;5049776;28;20420;-82
2023/09/20 09:20:21;;;;;;;3.72;2.40;;;18.40;99.90;;;;;;5031990;28;20805;-83
2023/09/20 09:22:47;;;;;;;3.95;2.35;;;18.60;99.90;;;;;;5012645;28;20045;-84
2023/09/20 09:25:18;;;;;;;3.40;2.50;;;18.50;99.90;;;;;;5011554;28;20045;-82
2023/09/20 09:27:43;;;;;;;4.40;2.17;;;18.50;99.90;;;;;;5029894;28;20140;-82
2023/09/20 09:30:16;;;;;;;5.95;2.50;;;18.60;99.90;;;;;;5029671;28;20132;-83
2023/09/20 09:32:43;;;;;;;3.63;2.28;;;19.20;99.90;;;;;;5031466;28;20071;-81
2023/09/20 09:35:09;;;;;;;4.65;2.53;;;18.80;99.90;;;;;;5049487;28;20049;-82
2023/09/20 09:37:41;;;;;;;4.65;2.50;;;18.80;99.90;;;;;;5030449;28;20397;-83
2023/09/20 09:40:09;;;;;;;6.03;2.33;;;18.80;99.90;;;;;;5031328;28;20037;-82
2023/09/20 09:42:39;;;;;;;3.75;2.00;;;18.90;99.90;;;;;;5048573;28;20554;-82
2023/09/20 09:45:06;;;;;;;5.93;2.20;;;18.90;99.90;;;;;;5049357;28;20049;-82
2023/09/20 09:47:35;;;;;;;4.78;2.60;;;19.00;99.90;;;;;;5049204;28;20937;-82
2023/09/20 09:50:06;;;;;;;4.13;2.63;;;19.00;99.90;;;;;;5043167;28;20090;-82
2023/09/20 09:52:36;;;;;;;3.30;2.58;;;19.00;99.90;;;;;;5049240;28;20180;-82
2023/09/20 09:55:02;;;;;;;5.45;2.65;;;19.00;99.90;;;;;;5041801;28;20041;-81
2023/09/20 09:57:28;;;;;;;4.85;2.47;;;19.10;99.90;;;;;;5029074;28;20354;-81
2023/09/20 09:59:54;;;;;;;3.60;2.38;;;19.20;99.90;;;;;;5011145;28;20045;-81
2023/09/20 10:02:25;;;;;;;3.83;2.40;;;19.00;99.90;;;;;;5029244;28;20049;-82
2023/09/20 10:05:02;;;;;;;5.85;2.40;;;19.10;99.90;;;;;;5029039;28;20049;-81
2023/09/20 10:07:35;;;;;;;3.75;2.30;;;18.90;99.90;;;;;;5011588;28;20491;-81
2023/09/20 10:10:12;;;;;;;3.53;1.90;;;19.20;99.90;;;;;;5036885;28;20135;-81
2023/09/20 10:12:40;;;;;;;4.95;2.20;;;19.20;99.90;;;;;;5029675;28;20048;-82
2023/09/20 10:15:08;;;;;;;3.67;2.42;;;19.80;99.90;;;;;;5047399;28;20037;-81
2023/09/20 10:17:44;;;;;;;5.32;2.17;;;19.30;99.90;;;;;;5044245;28;20191;-82
2023/09/20 10:20:10;;;;;;;4.20;2.08;;;19.30;99.90;;;;;;5019930;28;20123;-83
2023/09/20 10:22:45;;;;;;;4.07;2.30;;;19.30;99.90;;;;;;5008880;28;20056;-83
2023/09/20 10:25:31;;;;;;;4.43;2.20;;;19.90;99.90;;;;;;5046176;28;20052;-83
2023/09/20 10:27:56;;;;;;;2.78;1.85;;;19.50;99.90;;;;;;5035511;28;20045;-82
2023/09/20 10:30:22;;;;;;;3.80;2.20;;;19.50;99.90;;;;;;5043602;28;20068;-82
2023/09/20 10:32:58;;;;;;;4.75;2.03;;;19.50;99.90;;;;;;5041989;28;20049;-82
2023/09/20 10:35:30;;;;;;;3.65;1.80;;;19.50;99.90;;;;;;5046095;28;20097;-83
2023/09/20 10:38:04;;;;;;;;;;;19.50;99.90;;;;;;5028672;28;20512;-84
2023/09/20 10:40:45;;;;;;;4.25;1.88;;;19.50;99.90;;;;;;5010312;28;20009;-81
2023/09/20 10:43:42;;;;;;;3.58;1.85;;;19.50;99.90;;;;;;5014437;28;20041;-82
2023/09/20 10:46:17;;;;;;;3.05;1.85;;;19.50;99.90;;;;;;5040985;28;20052;-82
2023/09/20 10:48:49;;;;;;;4.50;1.95;;;18.90;99.90;;;;;;5013513;28;20052;-82
2023/09/20 10:51:41;;;;;;;1.75;1.60;;;19.60;99.90;;;;;;5045895;28;20037;-82
2023/09/20 10:54:25;;;;;;;3.03;1.80;;;19.60;99.90;;;;;;5018209;28;20061;-82
2023/09/20 10:56:51;;;;;;;3.33;2.00;;;19.60;99.90;;;;;;5047005;28;20536;-83
2023/09/20 10:59:21;;;;;;;2.70;1.90;;;19.70;99.90;;;;;;5047443;28;20051;-83
2023/09/20 11:02:08;;;;;;;4.13;1.88;;;19.70;99.90;;;;;;5047721;28;20053;-83
2023/09/20 11:04:36;;;;;;;2.78;1.90;;;19.70;99.90;;;;;;5046538;28;20551;-83
2023/09/20 11:07:14;;;;;;;3.70;1.95;;;19.70;99.90;;;;;;5013013;28;20120;-82
2023/09/20 11:09:39;;;;;;;3.15;1.90;;;19.10;99.90;;;;;;5047310;28;20053;-82
2023/09/20 11:12:07;;;;;;;3.42;1.98;;;19.80;99.90;;;;;;5047302;28;20083;-80
2023/09/20 11:14:41;;;;;;;5.07;2.03;;;20.50;99.90;;;;;;5047532;28;20045;-82
2023/09/20 11:17:11;;;;;;;3.75;1.75;;;19.50;99.90;;;;;;5046886;28;20057;-82
2023/09/20 11:19:38;;;;;;;2.63;1.60;;;21.30;99.90;;;;;;5046449;28;20055;-83
2023/09/20 11:22:05;;;;;;;2.83;1.95;;;20.30;99.90;;;;;;5029013;28;20040;-83
2023/09/20 11:24:32;;;;;;;3.90;1.80;;;20.00;99.90;;;;;;5029381;28;20056;-83
2023/09/20 11:26:58;;;;;;;3.95;1.85;;;20.30;99.90;;;;;;5027432;28;20037;-82
2023/09/20 11:29:25;;;;;;;2.72;1.90;;;20.80;99.90;;;;;;5047245;28;20171;-83
2023/09/20 11:31:56;;;;;;;3.05;1.90;;;20.70;99.90;;;;;;5040746;28;20084;-83
2023/09/20 11:34:28;;;;;;;3.38;1.95;;;21.30;99.90;;;;;;5027716;28;20056;-82
2023/09/20 11:36:54;;;;;;;3.55;1.98;;;20.60;99.90;;;;;;4992367;28;20128;-82
2023/09/20 11:39:29;;;;;;;2.63;1.98;;;21.00;99.90;;;;;;5009243;28;20057;-83
2023/09/20 11:42:00;;;;;;;5.00;2.20;;;20.30;99.90;;;;;;5024737;28;20049;-83
2023/09/20 11:44:29;;;;;;;3.55;1.80;;;21.40;99.90;;;;;;5027924;28;20071;-83
2023/09/20 11:46:57;;;;;;;4.47;1.92;;;20.60;99.90;;;;;;5010675;28;20049;-83
2023/09/20 11:49:27;;;;;;;3.20;2.30;;;21.30;99.90;;;;;;5045583;28;20056;-83
2023/09/20 11:51:57;;;;;;;4.18;2.53;;;21.90;99.90;;;;;;5029144;28;20059;-83
2023/09/20 11:54:41;;;;;;;9.93;2.72;;;21.60;99.90;;;;;;5045897;28;20135;-83
2023/09/20 11:57:07;;;;;;;4.32;2.45;;;20.70;99.90;;;;;;5012842;28;20048;-83
2023/09/20 11:59:41;;;;;;;5.18;2.55;;;21.40;99.90;;;;;;5027687;28;20873;-83
2023/09/20 12:02:08;;;;;;;20.38;5.53;;;21.00;99.90;;;;;;5029001;28;20052;-82
2023/09/20 12:04:34;;;;;;;13.15;4.45;;;21.10;99.90;;;;;;5045269;28;20080;-82
2023/09/20 12:07:02;;;;;;;4.05;2.65;;;22.20;99.90;;;;;;5027897;28;20080;-83
2023/09/20 12:09:27;;;;;;;5.85;3.30;;;22.60;99.90;;;;;;5029298;28;20048;-82
2023/09/20 12:11:53;;;;;;;6.10;2.60;;;21.90;99.90;;;;;;5028616;28;20053;-82
2023/09/20 12:14:21;;;;;;;5.30;2.65;;;21.80;99.90;;;;;;5028620;28;20162;-81
2023/09/20 12:16:50;;;;;;;7.70;2.90;;;21.80;99.90;;;;;;5046419;28;20703;-82
2023/09/20 12:19:16;;;;;;;5.07;2.60;;;21.10;99.90;;;;;;5049623;28;20504;-84
2023/09/20 12:21:45;;;;;;;6.25;2.55;;;22.50;99.90;;;;;;5031200;28;20041;-82
2023/09/20 12:24:12;;;;;;;4.57;2.78;;;22.20;99.90;;;;;;5031718;28;20045;-82
2023/09/20 12:26:38;;;;;;;8.13;3.10;;;21.60;99.90;;;;;;5048987;28;20048;-83
2023/09/20 12:29:04;;;;;;;4.38;3.00;;;21.80;99.90;;;;;;5013451;28;20183;-82
2023/09/20 12:31:29;;;;;;;4.00;2.38;;;21.20;99.90;;;;;;5024294;28;20128;-81
2023/09/20 12:33:55;;;;;;;3.15;2.53;;;22.20;99.90;;;;;;5030449;28;20044;-83
2023/09/20 12:36:23;;;;;;;3.83;2.95;;;21.30;99.90;;;;;;5015444;28;20064;-82
2023/09/20 12:38:49;;;;;;;3.88;2.80;;;21.40;99.90;;;;;;5047329;28;20048;-82
2023/09/20 12:41:15;;;;;;;5.95;3.15;;;22.30;99.90;;;;;;5050734;28;20049;-83
2023/09/20 12:43:41;;;;;;;8.57;3.15;;;22.20;99.90;;;;;;5031370;28;20051;-83
2023/09/20 12:46:07;;;;;;;4.32;2.92;;;21.10;99.90;;;;;;5031456;28;20037;-81
2023/09/20 12:48:33;;;;;;;5.30;2.90;;;21.40;99.90;;;;;;5032373;28;20049;-83
2023/09/20 12:51:25;;;;;;;5.18;2.85;;;22.00;99.90;;;;;;5015723;28;20049;-82
2023/09/20 12:53:51;;;;;;;5.43;2.50;;;21.50;99.90;;;;;;4996407;28;20049;-82
2023/09/20 12:56:17;;;;;;;3.95;2.70;;;21.50;99.90;;;;;;5012058;28;20048;-82
2023/09/20 12:58:43;;;;;;;4.03;2.40;;;22.00;99.90;;;;;;5035338;28;20755;-83
2023/09/20 13:01:10;;;;;;;4.57;2.42;;;21.10;99.90;;;;;;5049745;28;20052;-85
2023/09/20 13:03:43;;;;;;;4.40;2.60;;;22.50;99.90;;;;;;5032816;28;20055;-83
2023/09/20 13:06:09;;;;;;;4.60;2.70;;;22.00;99.90;;;;;;5050103;28;20094;-83
2023/09/20 13:08:37;;;;;;;4.68;2.70;;;21.80;99.90;;;;;;5040976;28;20688;-84
2023/09/20 13:11:05;;;;;;;3.60;2.22;;;21.10;99.90;;;;;;5025789;28;20056;-84
2023/09/20 13:13:32;;;;;;;3.90;2.50;;;21.30;99.90;;;;;;5047985;28;20408;-83
2023/09/20 13:15:57;;;;;;;3.65;2.28;;;21.30;99.90;;;;;;5043408;28;20053;-83
2023/09/20 13:18:23;;;;;;;8.45;2.67;;;21.50;99.90;;;;;;5042539;28;20048;-81
2023/09/20 13:20:49;;;;;;;5.18;2.60;;;22.00;99.90;;;;;;5029724;28;20404;-83
2023/09/20 13:23:14;;;;;;;3.00;2.42;;;22.10;99.90;;;;;;5043931;28;20045;-83
2023/09/20 13:25:42;;;;;;;3.78;2.50;;;22.00;99.90;;;;;;5045466;28;20041;-84
2023/09/20 13:28:08;;;;;;;3.20;2.70;;;22.50;99.90;;;;;;5013829;28;20061;-84
2023/09/20 13:30:40;;;;;;;3.85;2.60;;;22.60;99.90;;;;;;5016747;28;20515;-84